Time;durP1;ratioP1;P1;durP2;ratioP2;P2;SDS_P1;SDS_P2;PMS_P1;PMS_P2;Temp;Humidity;BMP_temperature;BMP_pressure;BME280_temperature;BME280_humidity;BME280_pressure;Samples;Min_cycle;Max_cycle;Signal;HPM_P1;HPM_P2
2021/07/22 00:00:09;;;;;;;15.65;9.90;;;;;;;19.14;70.61;101481.66;5007537;28;20071;-81
2021/07/22 00:02:36;;;;;;;14.48;9.57;;;;;;;19.08;70.89;101476.78;5001557;28;20072;-84
2021/07/22 00:05:06;;;;;;;13.55;8.95;;;;;;;19.01;71.19;101475.59;5018827;28;20037;-83
2021/07/22 00:07:33;;;;;;;16.40;9.80;;;;;;;19.01;71.31;101472.09;5038099;28;20128;-81
2021/07/22 00:10:00;;;;;;;14.40;9.30;;;;;;;19.09;70.83;101473.16;5022212;28;20041;-82
2021/07/22 00:12:27;;;;;;;16.60;10.02;;;;;;;19.14;70.78;101478.97;5029750;28;20072;-82
2021/07/22 00:14:54;;;;;;;12.63;8.85;;;;;;;19.10;70.98;101482.88;5021541;28;20053;-81
2021/07/22 00:17:21;;;;;;;17.85;9.35;;;;;;;18.97;71.89;101469.66;5002067;28;20068;-81
2021/07/22 00:19:49;;;;;;;15.68;10.18;;;;;;;19.01;71.66;101472.94;5048575;28;20075;-82
2021/07/22 00:22:17;;;;;;;13.30;8.93;;;;;;;18.94;71.83;101477.91;5020586;28;20087;-81
2021/07/22 00:24:45;;;;;;;19.73;9.98;;;;;;;18.96;71.57;101472.47;5009950;28;20053;-83
2021/07/22 00:27:19;;;;;;;14.05;9.73;;;;;;;19.00;72.09;101465.88;5006244;28;20140;-84
2021/07/22 00:29:46;;;;;;;15.15;9.15;;;;;;;19.11;71.79;101462.34;5034683;28;20137;-82
2021/07/22 00:32:13;;;;;;;14.23;9.48;;;;;;;19.06;72.39;101470.75;5017620;28;20049;-84
2021/07/22 00:34:41;;;;;;;17.48;10.45;;;;;;;19.05;71.97;101474.38;5016327;28;20116;-81
2021/07/22 00:37:08;;;;;;;15.85;9.45;;;;;;;19.09;71.95;101467.84;5018594;28;20076;-82
2021/07/22 00:39:36;;;;;;;15.93;9.00;;;;;;;18.93;72.55;101470.03;4990239;28;20127;-82
2021/07/22 00:42:04;;;;;;;17.00;10.23;;;;;;;18.80;73.22;101464.84;5010442;28;20045;-82
2021/07/22 00:44:31;;;;;;;18.30;9.20;;;;;;;18.78;73.52;101468.59;5004541;28;20085;-81
2021/07/22 00:46:58;;;;;;;19.65;11.57;;;;;;;18.76;73.57;101462.53;5013457;28;20128;-83
2021/07/22 00:49:27;;;;;;;14.02;9.80;;;;;;;18.64;74.28;101472.31;5018019;28;20061;-81
2021/07/22 00:51:54;;;;;;;18.60;9.75;;;;;;;18.69;73.46;101465.69;5035185;28;20373;-82
2021/07/22 00:54:21;;;;;;;15.77;9.18;;;;;;;18.68;73.83;101465.78;5026440;28;20059;-82
2021/07/22 00:56:49;;;;;;;12.90;8.80;;;;;;;18.80;72.91;101461.31;5020792;28;20076;-84
2021/07/22 00:59:16;;;;;;;12.77;9.05;;;;;;;18.80;72.65;101464.00;5035580;28;20567;-82
2021/07/22 01:01:43;;;;;;;16.55;9.77;;;;;;;18.78;72.76;101460.56;5013649;28;20049;-80
2021/07/22 01:04:11;;;;;;;16.63;8.93;;;;;;;18.70;73.23;101463.88;4999457;28;20395;-85
2021/07/22 01:06:38;;;;;;;14.30;9.27;;;;;;;18.67;73.43;101456.94;5038060;28;20112;-81
2021/07/22 01:09:05;;;;;;;11.55;8.65;;;;;;;18.68;73.23;101463.94;5027579;28;20083;-85
2021/07/22 01:11:32;;;;;;;13.95;9.43;;;;;;;18.70;73.81;101463.88;5018226;28;20073;-84
2021/07/22 01:13:59;;;;;;;14.57;9.32;;;;;;;18.81;72.93;101460.34;5005935;28;20337;-81
2021/07/22 01:16:27;;;;;;;13.88;9.52;;;;;;;18.78;73.11;101455.25;5015974;28;20080;-85
2021/07/22 01:18:54;;;;;;;14.43;9.45;;;;;;;18.85;72.87;101461.78;5029265;28;20164;-83
2021/07/22 01:21:24;;;;;;;15.57;9.63;;;;;;;18.68;73.48;101455.94;5050042;28;20061;-81
2021/07/22 01:23:52;;;;;;;15.30;9.52;;;;;;;18.70;73.66;101450.53;5026373;28;20480;-80
2021/07/22 01:26:20;;;;;;;14.63;8.63;;;;;;;18.66;74.00;101457.91;4996852;28;20477;-86
2021/07/22 01:28:47;;;;;;;15.68;9.57;;;;;;;18.58;74.37;101457.66;5010244;28;20319;-83
2021/07/22 01:31:14;;;;;;;14.27;10.15;;;;;;;18.50;75.15;101460.06;5019361;28;20148;-82
2021/07/22 01:33:42;;;;;;;14.85;10.57;;;;;;;18.54;74.85;101458.88;5011477;28;20144;-83
2021/07/22 01:36:09;;;;;;;12.27;8.50;;;;;;;18.55;74.64;101455.25;5037822;28;20100;-82
2021/07/22 01:38:36;;;;;;;11.60;9.13;;;;;;;18.44;75.25;101456.09;5008277;28;20057;-82
2021/07/22 01:41:04;;;;;;;19.52;10.05;;;;;;;18.52;75.08;101460.81;5013469;28;20133;-82
2021/07/22 01:43:31;;;;;;;18.40;9.70;;;;;;;18.55;74.77;101457.03;4997669;28;20049;-83
2021/07/22 01:45:59;;;;;;;13.85;9.13;;;;;;;18.62;74.75;101451.13;5012486;28;20494;-83
2021/07/22 01:48:26;;;;;;;12.30;9.13;;;;;;;18.53;75.63;101457.19;5026573;28;20064;-83
2021/07/22 01:50:53;;;;;;;11.57;8.75;;;;;;;18.61;74.93;101452.09;5032849;28;20587;-82
2021/07/22 01:53:21;;;;;;;11.90;9.25;;;;;;;18.48;75.61;101448.69;5022008;28;20128;-83
2021/07/22 01:55:48;;;;;;;17.50;10.02;;;;;;;18.38;76.61;101447.75;5028904;28;20116;-81
2021/07/22 01:58:15;;;;;;;12.57;8.70;;;;;;;18.37;76.20;101441.56;5006637;28;20140;-81
2021/07/22 02:00:42;;;;;;;13.20;8.98;;;;;;;18.30;76.64;101444.81;4986706;28;20036;-82
2021/07/22 02:03:09;;;;;;;14.80;9.48;;;;;;;18.27;77.24;101442.38;5011838;28;20156;-83
2021/07/22 02:05:36;;;;;;;15.52;9.43;;;;;;;18.26;76.81;101451.34;5009369;28;20076;-82
2021/07/22 02:08:04;;;;;;;16.55;9.43;;;;;;;18.10;78.06;101447.22;5007993;28;20128;-83
2021/07/22 02:10:31;;;;;;;17.80;9.98;;;;;;;18.23;78.02;101452.44;5028555;28;20306;-81
2021/07/22 02:12:58;;;;;;;14.23;9.88;;;;;;;18.31;77.25;101439.34;5008465;28;20068;-82
2021/07/22 02:15:29;;;;;;;16.52;9.18;;;;;;;18.23;77.71;101445.28;4996129;28;20049;-82
2021/07/22 02:17:56;;;;;;;14.02;9.93;;;;;;;18.16;78.39;101441.41;5013813;28;20053;-82
2021/07/22 02:20:23;;;;;;;14.95;10.07;;;;;;;17.96;79.52;101440.28;5022444;28;20139;-83
2021/07/22 02:22:50;;;;;;;12.32;9.45;;;;;;;17.92;79.80;101452.16;4997113;28;20597;-82
2021/07/22 02:25:17;;;;;;;13.15;9.70;;;;;;;18.05;79.47;101445.88;5023946;28;20046;-81
2021/07/22 02:27:45;;;;;;;13.02;10.43;;;;;;;18.06;79.17;101450.25;5018672;28;20057;-84
2021/07/22 02:30:12;;;;;;;13.75;9.93;;;;;;;18.27;78.38;101458.38;5028019;28;20155;-82
2021/07/22 02:32:39;;;;;;;13.85;9.40;;;;;;;18.29;77.92;101453.78;5001105;28;20445;-82
2021/07/22 02:35:07;;;;;;;15.60;9.45;;;;;;;18.12;78.98;101457.75;5023740;28;20041;-80
2021/07/22 02:37:35;;;;;;;18.48;10.48;;;;;;;18.15;79.02;101460.19;5015283;28;20477;-82
2021/07/22 02:40:03;;;;;;;12.50;9.90;;;;;;;18.11;79.52;101456.06;5014224;28;20137;-82
2021/07/22 02:42:30;;;;;;;16.88;10.50;;;;;;;18.17;79.46;101458.25;4998268;28;20212;-83
2021/07/22 02:44:57;;;;;;;13.85;9.85;;;;;;;18.21;79.11;101454.38;5043175;28;20178;-84
2021/07/22 02:47:26;;;;;;;14.38;9.93;;;;;;;18.17;79.34;101459.09;5033792;28;20152;-82
2021/07/22 02:49:53;;;;;;;17.98;9.23;;;;;;;18.08;79.86;101451.81;5032680;28;20192;-82
2021/07/22 02:52:20;;;;;;;14.82;10.00;;;;;;;18.09;79.96;101456.16;5008017;28;20064;-83
2021/07/22 02:54:47;;;;;;;15.85;9.50;;;;;;;17.95;80.39;101453.72;4998421;28;20192;-85
2021/07/22 02:57:14;;;;;;;11.82;9.57;;;;;;;17.81;81.29;101453.94;5010611;28;20140;-85
2021/07/22 02:59:42;;;;;;;14.48;9.48;;;;;;;17.76;81.59;101451.63;5019464;28;20358;-82
2021/07/22 03:02:09;;;;;;;14.07;8.73;;;;;;;17.91;81.45;101455.78;5018916;28;20141;-83
2021/07/22 03:04:37;;;;;;;15.52;9.57;;;;;;;17.90;81.34;101456.75;4983218;28;20042;-83
2021/07/22 03:07:04;;;;;;;15.23;9.73;;;;;;;17.87;82.02;101456.97;5023283;28;20578;-83
2021/07/22 03:09:31;;;;;;;14.95;10.45;;;;;;;17.90;81.57;101458.56;4980902;28;20049;-85
2021/07/22 03:11:58;;;;;;;12.52;9.05;;;;;;;17.80;81.81;101452.25;4998805;28;20147;-83
2021/07/22 03:14:25;;;;;;;12.90;9.40;;;;;;;17.86;81.70;101454.44;5013840;28;20436;-82
2021/07/22 03:16:53;;;;;;;17.00;10.15;;;;;;;17.83;81.91;101444.00;5011496;28;20455;-82
2021/07/22 03:19:24;;;;;;;13.07;9.07;;;;;;;17.84;82.06;101453.72;5034841;28;20060;-82
2021/07/22 03:21:51;;;;;;;12.50;9.38;;;;;;;17.86;81.81;101449.09;5014747;28;20049;-82
2021/07/22 03:24:19;;;;;;;12.30;9.60;;;;;;;17.69;82.45;101448.53;5006295;28;20049;-83
2021/07/22 03:26:46;;;;;;;11.90;9.95;;;;;;;17.53;83.65;101448.00;4997545;28;20120;-83
2021/07/22 03:29:13;;;;;;;15.10;9.35;;;;;;;17.72;83.50;101450.97;5007329;28;20132;-81
2021/07/22 03:31:40;;;;;;;11.85;9.00;;;;;;;17.66;83.48;101451.44;5021880;28;20059;-82
2021/07/22 03:34:07;;;;;;;11.93;9.13;;;;;;;17.64;84.02;101458.69;5045164;28;20041;-87
2021/07/22 03:36:35;;;;;;;11.63;9.32;;;;;;;17.70;83.90;101455.56;5056449;28;20063;-84
2021/07/22 03:39:02;;;;;;;14.13;9.77;;;;;;;17.66;83.85;101450.59;5015254;28;20045;-82
2021/07/22 03:41:29;;;;;;;12.85;9.35;;;;;;;17.83;83.02;101459.97;5047535;28;20041;-83
2021/07/22 03:43:56;;;;;;;16.35;8.90;;;;;;;17.69;83.72;101459.19;4995369;28;20055;-82
2021/07/22 03:46:24;;;;;;;12.82;9.35;;;;;;;17.73;83.83;101454.47;5019926;28;20041;-83
2021/07/22 03:48:51;;;;;;;14.60;9.38;;;;;;;17.65;84.41;101454.19;5034133;28;20046;-82
2021/07/22 03:51:18;;;;;;;13.25;8.90;;;;;;;17.77;83.84;101453.31;5014627;28;20067;-84
2021/07/22 03:53:45;;;;;;;14.75;9.18;;;;;;;17.99;82.69;101447.19;5030638;28;20196;-83
2021/07/22 03:56:13;;;;;;;14.60;9.55;;;;;;;17.89;83.14;101454.22;5020224;28;20464;-81
2021/07/22 03:58:40;;;;;;;17.00;10.02;;;;;;;18.08;82.16;101453.63;4999927;28;20049;-83
2021/07/22 04:01:07;;;;;;;11.48;9.82;;;;;;;17.93;83.25;101453.00;5021212;28;20052;-81
2021/07/22 04:03:36;;;;;;;17.23;9.98;;;;;;;17.89;83.62;101448.88;5022006;28;20057;-83
2021/07/22 04:06:03;;;;;;;15.30;9.75;;;;;;;17.92;83.70;101459.28;5020163;28;20451;-82
2021/07/22 04:08:31;;;;;;;17.63;11.13;;;;;;;18.00;83.25;101464.03;5006253;28;20072;-85
2021/07/22 04:11:00;;;;;;;12.45;9.95;;;;;;;18.06;83.01;101450.25;5000686;28;20081;-83
2021/07/22 04:13:28;;;;;;;16.20;9.23;;;;;;;18.14;82.86;101453.16;5037738;28;20421;-82
2021/07/22 04:15:55;;;;;;;14.48;9.77;;;;;;;18.29;81.78;101456.47;5043007;28;20089;-82
2021/07/22 04:18:23;;;;;;;14.05;9.70;;;;;;;18.21;82.72;101460.56;4994352;28;20132;-85
2021/07/22 04:20:50;;;;;;;14.30;10.35;;;;;;;18.33;81.72;101464.09;5013505;28;20144;-81
2021/07/22 04:23:17;;;;;;;18.38;10.75;;;;;;;18.52;79.60;101462.66;5031371;28;20076;-82
2021/07/22 04:25:46;;;;;;;18.65;10.75;;;;;;;18.67;78.41;101464.09;5021736;28;20118;-82
2021/07/22 04:28:13;;;;;;;11.88;9.55;;;;;;;18.66;78.38;101467.72;5009695;28;20064;-82
2021/07/22 04:30:40;;;;;;;19.33;10.77;;;;;;;18.72;78.61;101462.78;5034927;28;20050;-81
2021/07/22 04:33:07;;;;;;;15.70;10.30;;;;;;;18.70;78.39;101462.06;5026682;28;20132;-83
2021/07/22 04:35:35;;;;;;;15.35;9.55;;;;;;;18.82;77.28;101468.25;5019146;28;20056;-80
2021/07/22 04:38:04;;;;;;;19.90;10.80;;;;;;;18.86;76.57;101469.66;4999583;28;20182;-82
2021/07/22 04:40:31;;;;;;;18.48;10.90;;;;;;;18.69;77.25;101465.69;5015559;28;20240;-83
2021/07/22 04:43:01;;;;;;;18.20;11.43;;;;;;;18.87;76.83;101459.88;5012523;28;20163;-82
2021/07/22 04:45:28;;;;;;;21.70;10.68;;;;;;;18.82;77.15;101456.69;5020142;28;20390;-83
2021/07/22 04:47:56;;;;;;;16.67;11.65;;;;;;;18.90;77.19;101462.25;5010375;28;20037;-83
2021/07/22 04:50:23;;;;;;;17.35;10.85;;;;;;;19.33;74.92;101464.13;5001129;28;20041;-82
2021/07/22 04:52:50;;;;;;;15.00;10.60;;;;;;;19.50;74.43;101460.91;5030473;28;20140;-82
2021/07/22 04:55:17;;;;;;;16.33;10.93;;;;;;;19.32;74.66;101470.41;5019633;28;20149;-83
2021/07/22 04:57:45;;;;;;;15.32;11.43;;;;;;;19.23;75.14;101464.03;5006686;28;20460;-82
2021/07/22 05:00:12;;;;;;;14.82;11.63;;;;;;;19.31;74.93;101463.38;5023591;28;20045;-82
2021/07/22 05:02:42;;;;;;;15.52;11.63;;;;;;;19.35;74.61;101473.69;4998503;28;20091;-82
2021/07/22 05:05:11;;;;;;;13.63;11.05;;;;;;;19.32;74.51;101473.06;5038041;28;20068;-84
2021/07/22 05:07:38;;;;;;;15.57;10.15;;;;;;;19.42;73.65;101479.38;5038459;28;20048;-83
2021/07/22 05:10:06;;;;;;;14.65;9.98;;;;;;;19.04;74.61;101471.81;5009956;28;20057;-82
2021/07/22 05:12:33;;;;;;;14.02;10.00;;;;;;;19.53;72.49;101478.47;5010388;28;20141;-82
2021/07/22 05:15:02;;;;;;;13.18;9.93;;;;;;;19.93;70.80;101471.50;5012163;28;20048;-80
2021/07/22 05:17:29;;;;;;;17.73;11.00;;;;;;;20.23;70.26;101476.06;5021153;28;20212;-83
2021/07/22 05:19:56;;;;;;;17.45;9.95;;;;;;;20.43;68.70;101470.81;5039703;28;20041;-83
2021/07/22 05:22:24;;;;;;;19.77;10.00;;;;;;;19.94;70.33;101467.00;4998332;28;20373;-83
2021/07/22 05:24:51;;;;;;;16.95;10.63;;;;;;;19.92;70.46;101466.31;5007614;28;20052;-81
2021/07/22 05:27:19;;;;;;;21.10;11.02;;;;;;;20.17;69.67;101460.56;4978679;28;20045;-82
2021/07/22 05:29:46;;;;;;;17.83;11.15;;;;;;;20.56;68.08;101465.25;5002356;28;20077;-81
2021/07/22 05:32:14;;;;;;;19.30;9.90;;;;;;;20.69;68.13;101466.72;5014860;28;20059;-85
2021/07/22 05:34:41;;;;;;;14.75;10.50;;;;;;;20.82;67.02;101468.31;5001012;28;20042;-85
2021/07/22 05:37:11;;;;;;;16.67;10.80;;;;;;;21.25;64.14;101465.28;4998997;28;20135;-82
2021/07/22 05:39:38;;;;;;;14.05;10.52;;;;;;;20.62;64.53;101462.03;5014290;28;20045;-85
2021/07/22 05:42:05;;;;;;;19.63;10.20;;;;;;;19.97;66.47;101469.44;5028025;28;20084;-82
2021/07/22 05:44:32;;;;;;;13.38;8.93;;;;;;;20.36;65.72;101464.31;5011566;28;20081;-83
2021/07/22 05:47:00;;;;;;;14.55;9.77;;;;;;;20.55;64.80;101472.44;5036172;28;20047;-83
2021/07/22 05:49:27;;;;;;;12.32;9.38;;;;;;;21.08;63.53;101468.66;5016767;28;20083;-82
2021/07/22 05:51:54;;;;;;;14.10;8.30;;;;;;;21.97;60.26;101458.66;5014481;28;20100;-81
2021/07/22 05:54:22;;;;;;;11.70;8.98;;;;;;;22.90;57.66;101465.03;5044749;28;20162;-82
2021/07/22 05:56:49;;;;;;;11.18;9.13;;;;;;;23.17;56.58;101464.97;5033777;28;20530;-81
2021/07/22 05:59:17;;;;;;;11.77;9.27;;;;;;;23.22;55.86;101457.31;4991369;28;20383;-83
2021/07/22 06:01:44;;;;;;;12.18;8.90;;;;;;;24.02;53.54;101456.50;5016185;28;20136;-83
2021/07/22 06:04:12;;;;;;;12.13;8.73;;;;;;;24.70;50.56;101456.56;5032484;28;20040;-83
2021/07/22 06:06:45;;;;;;;13.38;9.35;;;;;;;24.96;50.12;101459.19;5019513;28;20136;-82
2021/07/22 06:09:12;;;;;;;13.45;9.13;;;;;;;23.39;52.80;101454.78;4982160;28;20052;-84
2021/07/22 06:11:39;;;;;;;14.02;9.60;;;;;;;24.29;50.82;101452.81;5026841;28;20441;-82
2021/07/22 06:14:06;;;;;;;11.32;8.38;;;;;;;24.21;51.06;101462.50;4994014;28;20068;-82
2021/07/22 06:16:35;;;;;;;13.63;8.15;;;;;;;24.17;51.06;101452.22;5010610;28;20496;-83
2021/07/22 06:19:02;;;;;;;15.45;9.50;;;;;;;23.95;51.92;101451.75;5009092;28;20105;-83
2021/07/22 06:21:29;;;;;;;15.20;9.23;;;;;;;24.61;50.66;101452.16;5026210;28;20097;-82
2021/07/22 06:23:57;;;;;;;14.93;8.90;;;;;;;25.00;49.64;101457.84;5048711;28;20049;-86
2021/07/22 06:26:24;;;;;;;12.77;8.60;;;;;;;26.20;46.08;101464.47;5014607;28;20057;-81
2021/07/22 06:28:52;;;;;;;13.18;8.40;;;;;;;26.83;44.66;101462.78;5014675;28;20085;-81
2021/07/22 06:31:20;;;;;;;12.15;8.00;;;;;;;26.78;44.35;101460.59;5012735;28;20053;-84
2021/07/22 06:33:47;;;;;;;13.02;8.68;;;;;;;26.41;45.18;101459.38;5019981;28;20050;-82
2021/07/22 06:36:14;;;;;;;12.32;8.13;;;;;;;26.43;44.96;101460.09;5033399;28;20053;-82
2021/07/22 06:38:41;;;;;;;16.55;8.85;;;;;;;26.14;46.19;101459.78;5013291;28;20436;-81
2021/07/22 06:41:11;;;;;;;11.77;7.65;;;;;;;25.67;47.34;101463.19;5035986;28;20049;-82
2021/07/22 06:43:38;;;;;;;10.57;8.48;;;;;;;26.28;45.28;101459.06;5002895;28;20501;-84
2021/07/22 06:46:05;;;;;;;13.57;8.13;;;;;;;27.81;42.11;101467.56;5013034;28;20068;-83
2021/07/22 06:48:32;;;;;;;13.15;8.70;;;;;;;28.02;41.06;101467.72;5032920;28;20049;-84
2021/07/22 06:51:01;;;;;;;12.85;7.88;;;;;;;27.54;42.18;101468.94;5004783;28;20133;-81
2021/07/22 06:53:28;;;;;;;12.75;8.48;;;;;;;27.02;43.12;101460.50;4987004;28;20121;-83
2021/07/22 06:55:57;;;;;;;15.52;8.85;;;;;;;25.98;46.15;101463.34;5035112;28;20141;-83
2021/07/22 06:58:24;;;;;;;12.95;8.38;;;;;;;25.43;47.03;101467.53;5011173;28;20055;-83
2021/07/22 07:00:51;;;;;;;12.43;9.13;;;;;;;25.59;47.58;101469.41;5008167;28;20386;-83
2021/07/22 07:03:19;;;;;;;14.73;8.63;;;;;;;25.88;47.44;101460.00;5029091;28;20539;-83
2021/07/22 07:05:47;;;;;;;16.63;9.02;;;;;;;26.21;46.18;101461.63;5037218;28;20189;-82
2021/07/22 07:08:15;;;;;;;16.40;8.88;;;;;;;26.48;45.57;101467.66;5010118;28;20457;-81
2021/07/22 07:10:42;;;;;;;10.90;8.63;;;;;;;28.75;41.17;101461.47;5016817;28;20140;-81
2021/07/22 07:13:12;;;;;;;12.63;9.20;;;;;;;28.95;39.92;101460.84;5007736;28;20144;-83
2021/07/22 07:15:40;;;;;;;10.63;8.52;;;;;;;29.41;39.04;101458.69;5042407;28;20132;-80
2021/07/22 07:18:07;;;;;;;15.18;9.48;;;;;;;28.68;40.45;101459.69;5014377;28;20124;-81
2021/07/22 07:20:35;;;;;;;11.38;8.73;;;;;;;28.49;41.38;101461.13;4995109;28;20080;-81
2021/07/22 07:23:02;;;;;;;14.50;9.40;;;;;;;29.50;38.95;101459.41;4997185;28;20123;-81
2021/07/22 07:25:29;;;;;;;12.43;8.90;;;;;;;31.02;36.78;101462.25;4998541;28;20120;-80
2021/07/22 07:27:56;;;;;;;14.48;9.75;;;;;;;29.88;37.78;101462.66;5009727;28;20384;-83
2021/07/22 07:30:24;;;;;;;17.90;8.55;;;;;;;30.99;35.78;101466.25;5022546;28;20383;-82
2021/07/22 07:32:52;;;;;;;13.13;9.27;;;;;;;31.72;34.71;101466.38;5003782;28;20111;-81
2021/07/22 07:35:19;;;;;;;11.93;8.25;;;;;;;32.50;33.48;101454.75;5005716;28;20079;-82
2021/07/22 07:37:47;;;;;;;15.65;9.75;;;;;;;32.31;33.18;101456.47;5017820;28;20121;-81
2021/07/22 07:40:14;;;;;;;14.30;10.07;;;;;;;31.89;33.97;101457.81;5016752;28;20077;-79
2021/07/22 07:42:43;;;;;;;13.57;9.20;;;;;;;31.27;35.02;101452.53;5038347;28;20061;-80
2021/07/22 07:45:10;;;;;;;16.40;8.27;;;;;;;29.63;38.17;101462.25;5001652;28;20034;-80
2021/07/22 07:47:45;;;;;;;12.00;8.20;;;;;;;29.71;38.40;101461.25;5005422;28;20038;-81
2021/07/22 07:50:17;;;;;;;12.20;7.57;;;;;;;29.67;38.00;101462.69;4987911;28;20361;-83
2021/07/22 07:52:45;;;;;;;11.07;7.10;;;;;;;30.83;35.54;101460.31;5005365;28;20047;-80
2021/07/22 07:56:07;;;;;;;11.95;7.85;;;;;;;30.97;35.38;101460.16;5015918;28;20042;-80
2021/07/22 07:58:34;;;;;;;9.43;7.20;;;;;;;29.71;36.86;101462.09;4985953;28;20069;-80
2021/07/22 08:01:02;;;;;;;11.68;7.93;;;;;;;28.39;39.59;101463.28;5011178;28;20144;-82
2021/07/22 08:03:33;;;;;;;11.57;8.13;;;;;;;29.28;37.70;101453.13;5004418;28;20041;-81
2021/07/22 08:06:01;;;;;;;12.38;8.65;;;;;;;29.36;37.73;101449.44;5005441;28;20045;-79
2021/07/22 08:08:28;;;;;;;11.38;8.43;;;;;;;30.46;36.31;101440.69;4999306;28;20057;-79
2021/07/22 08:10:58;;;;;;;12.32;7.88;;;;;;;31.63;34.32;101443.13;4985228;28;20042;-79
2021/07/22 08:13:26;;;;;;;12.85;8.40;;;;;;;31.31;34.55;101450.22;4969780;28;20563;-82
2021/07/22 08:15:54;;;;;;;14.85;8.55;;;;;;;32.57;32.33;101441.97;5017227;28;20037;-81
2021/07/22 08:18:21;;;;;;;11.43;8.40;;;;;;;34.68;29.16;101443.22;5029068;28;20083;-80
2021/07/22 08:20:49;;;;;;;12.70;7.50;;;;;;;33.80;30.92;101438.03;5037816;28;20135;-81
2021/07/22 08:23:17;;;;;;;9.38;8.40;;;;;;;32.23;32.35;101446.63;5027281;28;20422;-81
2021/07/22 08:25:44;;;;;;;17.13;8.68;;;;;;;30.88;34.82;101444.22;5019463;28;20058;-82
2021/07/22 08:28:11;;;;;;;11.13;7.85;;;;;;;30.10;35.56;101436.28;4996708;28;20057;-81
2021/07/22 08:30:39;;;;;;;10.05;8.10;;;;;;;28.57;38.86;101436.66;5002880;28;20117;-81
2021/07/22 08:33:07;;;;;;;47.70;11.57;;;;;;;26.55;43.24;101441.63;5035773;28;20529;-81
2021/07/22 08:35:34;;;;;;;19.65;8.02;;;;;;;26.30;43.50;101434.59;5015588;28;20154;-84
2021/07/22 08:38:01;;;;;;;13.30;8.35;;;;;;;26.46;42.80;101434.59;5019794;28;20055;-81
2021/07/22 08:40:28;;;;;;;14.95;7.50;;;;;;;26.85;43.71;101431.03;4997358;28;20445;-83
2021/07/22 08:43:03;;;;;;;11.73;7.72;;;;;;;26.32;44.87;101429.88;5003807;28;20072;-83
2021/07/22 08:45:31;;;;;;;17.80;7.35;;;;;;;26.26;44.66;101426.03;5019043;28;20034;-84
2021/07/22 08:47:58;;;;;;;11.27;7.35;;;;;;;26.25;44.64;101421.63;5015911;28;20056;-80
2021/07/22 08:50:26;;;;;;;10.30;6.93;;;;;;;26.72;43.29;101427.03;5000904;28;20156;-81
2021/07/22 08:52:53;;;;;;;14.85;8.45;;;;;;;26.77;42.65;101426.50;5037369;28;20053;-82
2021/07/22 08:55:21;;;;;;;11.40;7.38;;;;;;;26.62;44.06;101426.41;5002704;28;20126;-80
2021/07/22 08:57:49;;;;;;;18.52;7.75;;;;;;;26.29;44.50;101420.25;5040527;28;20069;-81
2021/07/22 09:00:17;;;;;;;11.85;7.35;;;;;;;26.23;45.24;101416.41;5004260;28;20045;-80
2021/07/22 09:02:44;;;;;;;13.85;7.47;;;;;;;26.04;45.61;101422.22;5039445;28;20131;-83
2021/07/22 09:05:14;;;;;;;13.90;8.48;;;;;;;25.78;45.39;101422.41;5026380;28;20147;-81
2021/07/22 09:07:41;;;;;;;15.02;7.70;;;;;;;26.16;45.21;101419.97;5017952;28;20077;-81
2021/07/22 09:10:12;;;;;;;9.30;7.45;;;;;;;26.72;43.11;101426.19;5019356;28;20113;-81
2021/07/22 09:12:44;;;;;;;10.15;8.45;;;;;;;26.99;42.64;101419.47;5008875;28;20048;-81
2021/07/22 09:15:32;;;;;;;14.27;7.10;;;;;;;27.08;42.45;101421.09;5010963;28;20071;-81
2021/07/22 09:18:25;;;;;;;11.55;7.28;;;;;;;26.38;44.08;101416.50;5010387;28;20095;-82
2021/07/22 09:20:53;;;;;;;12.60;7.57;;;;;;;27.36;42.21;101418.72;5012859;28;20132;-80
2021/07/22 09:23:25;;;;;;;12.40;8.15;;;;;;;27.94;40.87;101410.94;5025883;28;20399;-81
2021/07/22 09:25:54;;;;;;;11.10;7.05;;;;;;;28.32;39.94;101411.69;4978106;28;20041;-81
2021/07/22 09:28:23;;;;;;;14.02;7.65;;;;;;;28.34;39.49;101414.22;5033312;28;20353;-81
2021/07/22 09:30:58;;;;;;;11.05;7.38;;;;;;;27.61;41.01;101418.53;5013647;28;20573;-81
2021/07/22 09:33:35;;;;;;;;;;;;;;;27.43;41.15;101416.97;4996560;28;20383;-81
2021/07/22 09:36:02;;;;;;;12.10;7.22;;;;;;;27.26;41.93;101410.84;5018305;28;20011;-78
2021/07/22 09:38:31;;;;;;;11.98;7.07;;;;;;;26.84;42.12;101413.13;5012707;28;20053;-80
2021/07/22 09:40:58;;;;;;;11.13;8.05;;;;;;;26.21;43.29;101407.66;5025478;28;20212;-80
2021/07/22 09:43:55;;;;;;;14.60;7.50;;;;;;;25.54;45.43;101408.94;5022086;28;20453;-81
2021/07/22 09:46:39;;;;;;;11.48;7.32;;;;;;;26.53;43.09;101408.56;5021507;28;20548;-80
2021/07/22 09:49:10;;;;;;;10.40;7.03;;;;;;;27.06;42.54;101404.19;5011210;28;20029;-80
2021/07/22 09:51:38;;;;;;;11.73;6.95;;;;;;;26.96;41.48;101404.44;5017491;28;20119;-84
2021/07/22 09:54:09;;;;;;;9.90;6.82;;;;;;;27.01;41.61;101398.50;4995324;28;20116;-83
2021/07/22 09:56:39;;;;;;;16.08;8.00;;;;;;;27.26;41.67;101404.59;5011817;28;20045;-81
2021/07/22 09:59:08;;;;;;;10.60;6.85;;;;;;;28.32;39.42;101395.44;5016706;28;20136;-83
2021/07/22 10:01:45;;;;;;;10.50;7.72;;;;;;;27.98;39.38;101398.72;5020252;28;20049;-84
2021/07/22 10:04:13;;;;;;;15.80;7.68;;;;;;;27.21;41.17;101407.00;5002261;28;20072;-79
2021/07/22 10:06:43;;;;;;;10.90;7.07;;;;;;;27.48;41.68;101400.22;5028884;28;20061;-80
2021/07/22 10:09:18;;;;;;;10.85;7.82;;;;;;;27.23;42.22;101403.09;5018815;28;20481;-81
2021/07/22 10:11:46;;;;;;;13.75;7.25;;;;;;;27.18;41.78;101399.25;4996124;28;20647;-83
2021/07/22 10:14:18;;;;;;;11.93;8.23;;;;;;;27.00;40.83;101392.25;5013556;28;20429;-80
2021/07/22 10:16:49;;;;;;;35.80;9.05;;;;;;;26.11;42.98;101395.34;5016041;28;20050;-82
2021/07/22 10:19:17;;;;;;;13.80;7.60;;;;;;;26.34;42.59;101403.53;5023797;28;20049;-81
2021/07/22 10:21:44;;;;;;;10.02;6.97;;;;;;;26.21;41.71;101399.56;5015207;28;20156;-84
2021/07/22 10:24:12;;;;;;;10.38;7.53;;;;;;;25.57;43.23;101395.94;4998250;28;20054;-78
2021/07/22 10:26:40;;;;;;;16.67;7.57;;;;;;;25.17;44.07;101399.47;5014816;28;20141;-79
2021/07/22 10:29:07;;;;;;;12.13;7.22;;;;;;;24.57;46.20;101400.47;4998673;28;20142;-81
2021/07/22 10:31:39;;;;;;;17.20;8.05;;;;;;;24.50;47.42;101396.78;5004800;28;20069;-82
2021/07/22 10:34:10;;;;;;;13.93;7.07;;;;;;;24.08;48.88;101394.84;5007765;28;20038;-83
2021/07/22 10:36:43;;;;;;;16.88;8.88;;;;;;;23.65;50.84;101393.06;5000801;28;20141;-81
2021/07/22 10:39:10;;;;;;;12.15;8.38;;;;;;;23.64;51.16;101392.22;4977925;28;20419;-82
2021/07/22 10:41:40;;;;;;;13.95;7.45;;;;;;;23.43;51.96;101391.69;4998245;28;20043;-82
2021/07/22 10:44:34;;;;;;;12.38;7.90;;;;;;;23.46;51.66;101388.66;5021475;28;20104;-81
2021/07/22 10:47:05;;;;;;;10.85;7.40;;;;;;;23.36;51.53;101393.28;5038843;28;20322;-82
2021/07/22 10:49:43;;;;;;;14.25;8.30;;;;;;;23.50;51.46;101390.03;5021121;28;20468;-80
2021/07/22 10:52:12;;;;;;;16.25;8.07;;;;;;;23.24;51.99;101395.41;5020622;28;20037;-82
2021/07/22 10:54:44;;;;;;;17.08;8.25;;;;;;;23.40;51.52;101397.34;5015222;28;20441;-82
2021/07/22 10:57:36;;;;;;;13.25;6.85;;;;;;;23.54;50.63;101390.59;5032151;28;20072;-80
2021/07/22 11:00:08;;;;;;;17.42;7.53;;;;;;;23.90;50.20;101389.53;5021481;28;20307;-81
2021/07/22 11:02:40;;;;;;;17.58;7.63;;;;;;;23.97;49.97;101387.91;5005442;28;20451;-82
2021/07/22 11:05:10;;;;;;;13.05;7.90;;;;;;;24.18;49.46;101383.94;4998745;28;20481;-82
2021/07/22 11:07:38;;;;;;;16.15;7.88;;;;;;;24.25;48.91;101385.00;5019925;28;20099;-81
2021/07/22 11:10:57;;;;;;;12.45;6.93;;;;;;;23.99;48.56;101387.72;5029345;28;20039;-81
2021/07/22 11:13:47;;;;;;;12.43;8.85;;;;;;;23.86;49.12;101379.25;5017289;28;20381;-85
2021/07/22 11:16:22;;;;;;;11.85;6.90;;;;;;;24.05;49.30;101388.97;5040136;28;20054;-80
2021/07/22 11:19:20;;;;;;;14.48;7.97;;;;;;;24.38;48.85;101382.75;5007495;28;20136;-81
2021/07/22 11:21:48;;;;;;;12.55;7.28;;;;;;;24.29;49.57;101381.00;4989835;28;20558;-81
2021/07/22 11:24:22;;;;;;;13.88;7.97;;;;;;;24.34;49.54;101378.66;5024012;28;20053;-82